Time;durP1;ratioP1;P1;durP2;ratioP2;P2;SDS_P1;SDS_P2;PMS_P1;PMS_P2;Temp;Humidity;BMP_temperature;BMP_pressure;BME280_temperature;BME280_humidity;BME280_pressure;Samples;Min_cycle;Max_cycle;Signal;HPM_P1;HPM_P2
2021/10/25 00:00:41;;;;;;;9.63;4.85;;;;;;;3.51;68.15;101052.22;4978224;28;20053;-59
2021/10/25 00:03:14;;;;;;;10.25;4.60;;;;;;;3.56;67.80;101055.81;4978121;28;20493;-59
2021/10/25 00:05:43;;;;;;;11.65;4.82;;;;;;;3.59;67.81;101061.03;4978127;28;20125;-60
2021/10/25 00:08:13;;;;;;;9.77;4.18;;;;;;;3.55;67.90;101059.13;4978060;28;20047;-59
2021/10/25 00:10:49;;;;;;;;;;;;;;;3.50;68.44;101055.53;4978706;28;20485;-60
2021/10/25 00:13:23;;;;;;;7.32;3.78;;;;;;;3.39;68.69;101044.03;4977921;28;20012;-59
2021/10/25 00:15:52;;;;;;;10.77;4.45;;;;;;;3.47;68.71;101057.03;4977919;28;20092;-59
2021/10/25 00:18:25;;;;;;;10.23;4.50;;;;;;;3.48;68.69;101057.09;4977808;28;20047;-59
2021/10/25 00:20:57;;;;;;;8.68;4.28;;;;;;;3.48;68.67;101054.56;4977805;28;20085;-59
2021/10/25 00:23:29;;;;;;;8.40;4.45;;;;;;;3.49;68.69;101053.78;4977774;28;20050;-59
2021/10/25 00:26:01;;;;;;;8.23;4.25;;;;;;;3.52;68.65;101048.91;4977766;28;20082;-59
2021/10/25 00:28:36;;;;;;;11.00;4.63;;;;;;;3.53;68.55;101054.84;4977687;28;20061;-59
2021/10/25 00:31:08;;;;;;;8.90;4.45;;;;;;;3.35;68.82;101021.97;4977799;28;20488;-59
2021/10/25 00:33:41;;;;;;;10.55;4.05;;;;;;;3.47;68.78;101044.41;4960414;28;20054;-59
2021/10/25 00:36:10;;;;;;;6.55;3.88;;;;;;;3.44;68.25;101052.69;4977888;28;20085;-59
2021/10/25 00:38:42;;;;;;;;;;;;;;;3.35;68.42;101040.50;4977878;28;20054;-59
2021/10/25 00:41:17;;;;;;;9.02;4.40;;;;;;;3.38;68.39;101039.78;4992743;28;19972;-59
2021/10/25 00:43:50;;;;;;;7.57;4.13;;;;;;;3.44;69.22;101042.59;4977735;28;20078;-59
2021/10/25 00:46:25;;;;;;;8.25;4.28;;;;;;;3.45;68.99;101041.81;4977397;28;20090;-59
2021/10/25 00:48:57;;;;;;;7.30;3.65;;;;;;;3.39;69.19;101037.34;4977379;28;20106;-59
2021/10/25 00:51:30;;;;;;;7.88;3.85;;;;;;;3.23;68.80;101013.78;4977568;28;20444;-59
2021/10/25 00:54:02;;;;;;;11.20;4.43;;;;;;;3.26;69.06;101044.22;4977837;28;20130;-59
2021/10/25 00:56:41;;;;;;;8.48;4.30;;;;;;;3.18;69.34;101045.50;4938797;29;20047;-59
2021/10/25 00:59:15;;;;;;;9.50;4.32;;;;;;;3.15;69.16;101046.19;4939222;29;20044;-59
2021/10/25 01:01:45;;;;;;;8.80;4.22;;;;;;;3.18;70.14;101036.28;4938206;29;20055;-59
2021/10/25 01:04:15;;;;;;;11.10;4.03;;;;;;;3.18;69.82;101035.41;4938664;29;20498;-59
2021/10/25 01:06:46;;;;;;;7.82;3.95;;;;;;;3.20;69.26;101028.78;4937468;29;20086;-59
2021/10/25 01:09:20;;;;;;;8.18;3.78;;;;;;;3.14;69.87;101029.31;4938816;29;20040;-59
2021/10/25 01:12:12;;;;;;;8.98;3.65;;;;;;;3.16;69.52;101031.94;4937352;29;20062;-59
2021/10/25 01:14:44;;;;;;;9.20;4.25;;;;;;;3.05;69.54;100997.72;4974794;28;20046;-59
2021/10/25 01:17:16;;;;;;;8.32;4.25;;;;;;;3.15;69.39;101020.09;4974998;28;20073;-59
2021/10/25 01:19:54;;;;;;;8.50;4.05;;;;;;;3.17;69.90;101023.56;4958947;28;20057;-59
2021/10/25 01:22:26;;;;;;;7.03;3.72;;;;;;;3.21;69.70;101020.44;4974788;28;20076;-59
2021/10/25 01:24:59;;;;;;;7.05;3.75;;;;;;;3.20;70.14;101023.72;4975517;28;20043;-59
2021/10/25 01:27:32;;;;;;;8.00;4.18;;;;;;;3.19;69.61;101017.81;4974718;28;20043;-59
2021/10/25 01:30:09;;;;;;;9.20;3.90;;;;;;;3.22;69.85;101017.97;4974757;28;20053;-59
2021/10/25 01:32:38;;;;;;;7.85;3.90;;;;;;;3.31;69.07;101026.00;4959589;28;20425;-59
2021/10/25 01:35:13;;;;;;;7.60;4.28;;;;;;;3.23;69.28;101018.84;4969189;28;20103;-59
2021/10/25 01:37:45;;;;;;;8.43;3.88;;;;;;;3.27;70.05;101018.19;4938240;29;20498;-59
2021/10/25 01:40:17;;;;;;;7.22;3.55;;;;;;;3.26;70.03;101008.91;4938203;29;20070;-59
2021/10/25 01:42:47;;;;;;;9.43;3.72;;;;;;;3.23;69.90;101013.78;4938233;29;20414;-59
2021/10/25 01:45:19;;;;;;;;;;;;;;;3.27;69.13;101010.63;4938278;29;20046;-59
2021/10/25 01:47:49;;;;;;;10.15;3.97;;;;;;;3.22;69.99;101012.91;4968949;28;20026;-59
2021/10/25 01:50:21;;;;;;;9.23;3.97;;;;;;;3.24;69.17;101011.34;4968960;28;20139;-59
2021/10/25 01:52:51;;;;;;;9.45;3.88;;;;;;;3.29;69.40;101014.09;4937749;29;20051;-59
2021/10/25 01:55:21;;;;;;;7.30;3.70;;;;;;;3.22;69.63;101007.88;4956851;28;20061;-59
2021/10/25 01:57:52;;;;;;;9.23;3.97;;;;;;;3.23;69.45;101004.59;4958810;28;20078;-59
2021/10/25 02:00:22;;;;;;;8.70;3.95;;;;;;;3.24;69.54;101005.41;4990911;28;20105;-59
2021/10/25 02:02:54;;;;;;;;;;;;;;;3.25;69.79;101002.13;4991677;28;20039;-59
2021/10/25 02:05:37;;;;;;;10.02;3.42;;;;;;;3.22;69.79;101001.97;4975969;28;19976;-59
2021/10/25 02:08:06;;;;;;;7.38;3.95;;;;;;;3.06;69.98;100977.66;4958612;28;20051;-59
2021/10/25 02:10:56;;;;;;;8.85;3.15;;;;;;;3.16;69.18;100999.16;4975706;28;20062;-59
2021/10/25 02:13:26;;;;;;;;;;;;;;;3.19;69.88;101001.84;4975420;28;20501;-59
2021/10/25 02:16:01;;;;;;;7.53;4.00;;;;;;;3.20;69.65;100993.47;4975737;28;19922;-59
2021/10/25 02:18:30;;;;;;;10.27;3.83;;;;;;;3.22;69.58;100991.88;4975924;28;20073;-59
2021/10/25 02:21:03;;;;;;;9.15;4.00;;;;;;;3.22;69.83;100986.81;4990919;28;20046;-60
2021/10/25 02:23:36;;;;;;;12.35;4.10;;;;;;;3.18;69.14;100985.81;4975562;28;20046;-59
2021/10/25 02:26:07;;;;;;;11.52;4.38;;;;;;;3.19;69.52;100989.22;4942595;28;20149;-59
2021/10/25 02:28:39;;;;;;;16.83;4.00;;;;;;;3.21;69.09;100982.59;4975780;28;20049;-59
2021/10/25 02:31:14;;;;;;;9.63;4.63;;;;;;;3.10;69.72;100983.69;4975526;28;20133;-59
2021/10/25 02:33:46;;;;;;;9.30;3.95;;;;;;;3.14;69.60;100983.09;4975383;28;20070;-59
2021/10/25 02:36:22;;;;;;;7.82;3.75;;;;;;;3.15;70.02;100972.19;4975383;28;20129;-59
2021/10/25 02:38:56;;;;;;;7.25;3.35;;;;;;;3.02;69.38;100975.78;4975630;28;20065;-59
2021/10/25 02:41:28;;;;;;;9.77;3.80;;;;;;;3.04;70.01;100970.81;4975351;28;20074;-59
2021/10/25 02:44:04;;;;;;;7.95;4.30;;;;;;;3.07;70.22;100976.00;4975806;28;20498;-59
2021/10/25 02:46:37;;;;;;;6.78;3.78;;;;;;;2.98;69.66;100973.88;4958018;28;20047;-59
2021/10/25 02:49:10;;;;;;;7.95;3.85;;;;;;;2.94;69.77;100974.50;4957939;28;20051;-60
2021/10/25 02:51:45;;;;;;;8.35;4.28;;;;;;;2.92;70.08;100973.59;4975119;28;20057;-59
2021/10/25 02:54:15;;;;;;;8.88;3.20;;;;;;;2.89;69.94;100973.41;4974195;28;20055;-59
2021/10/25 02:56:53;;;;;;;8.15;3.53;;;;;;;2.90;69.72;100975.16;4936686;29;20052;-59
2021/10/25 02:59:31;;;;;;;7.50;3.45;;;;;;;2.86;70.64;100970.72;4936620;29;20051;-59
2021/10/25 03:02:05;;;;;;;6.13;3.20;;;;;;;2.92;69.61;100971.06;4936868;29;20048;-59
2021/10/25 03:04:38;;;;;;;5.88;3.00;;;;;;;2.94;70.51;100968.59;4936911;29;20143;-59
2021/10/25 03:07:12;;;;;;;9.00;3.25;;;;;;;2.95;69.97;100967.81;4936814;29;20561;-59
2021/10/25 03:09:49;;;;;;;9.85;4.10;;;;;;;2.87;69.58;100974.13;4936507;29;20051;-59
2021/10/25 03:12:18;;;;;;;10.20;3.65;;;;;;;2.77;70.15;100964.34;4936652;29;20055;-59
2021/10/25 03:14:56;;;;;;;7.32;3.60;;;;;;;2.80;70.69;100972.09;4935555;29;20063;-59
2021/10/25 03:17:28;;;;;;;7.45;4.10;;;;;;;2.79;70.20;100973.72;4936473;29;20074;-59
2021/10/25 03:20:13;;;;;;;8.30;4.07;;;;;;;2.89;70.85;100964.97;4936629;29;20469;-59
2021/10/25 03:22:51;;;;;;;6.15;3.58;;;;;;;2.91;70.57;100964.28;4936384;29;20048;-59
2021/10/25 03:25:25;;;;;;;9.35;4.18;;;;;;;2.84;70.61;100961.34;4935908;29;20052;-59
2021/10/25 03:27:59;;;;;;;7.93;3.67;;;;;;;2.89;69.82;100964.97;4936325;29;20055;-59
2021/10/25 03:30:34;;;;;;;8.00;3.78;;;;;;;2.82;70.21;100960.41;4935126;29;20099;-59
2021/10/25 03:33:10;;;;;;;8.52;3.92;;;;;;;2.75;70.31;100940.75;4935415;29;20083;-59
2021/10/25 03:35:53;;;;;;;9.73;3.90;;;;;;;2.72;70.65;100962.47;4936204;29;20091;-59
2021/10/25 03:38:31;;;;;;;7.07;3.67;;;;;;;2.72;70.35;100959.97;4936223;29;20048;-59
2021/10/25 03:41:01;;;;;;;9.90;4.13;;;;;;;2.69;70.99;100956.41;4936023;29;20051;-59
2021/10/25 03:43:37;;;;;;;10.68;3.70;;;;;;;2.72;70.36;100961.63;4936159;29;20086;-59
2021/10/25 03:46:17;;;;;;;12.73;4.78;;;;;;;2.76;70.85;100952.56;4936079;29;20561;-59
2021/10/25 03:48:55;;;;;;;12.20;4.90;;;;;;;2.82;71.03;100957.91;4936139;29;20078;-59
2021/10/25 03:51:25;;;;;;;12.02;4.43;;;;;;;2.82;70.86;100947.81;4936281;29;20406;-59
2021/10/25 03:54:06;;;;;;;;;;;;;;;2.86;70.58;100954.72;4936491;29;20051;-59
2021/10/25 03:56:51;;;;;;;12.40;4.57;;;;;;;2.81;70.01;100951.16;4972902;28;20005;-59
2021/10/25 04:27:18;;;;;;;7.78;4.03;;;;;;;2.73;70.21;100933.13;4974143;28;20082;-59
2021/10/25 04:29:58;;;;;;;8.35;4.32;;;;;;;2.61;70.43;100927.44;4974426;28;20047;-59
2021/10/25 04:32:31;;;;;;;9.80;4.22;;;;;;;2.63;70.31;100935.94;4974987;28;20567;-59
2021/10/25 04:35:07;;;;;;;7.38;3.72;;;;;;;2.63;70.09;100933.44;4956933;28;20046;-59
2021/10/25 04:37:50;;;;;;;8.00;3.55;;;;;;;2.57;70.49;100931.44;4976710;28;20074;-59
2021/10/25 04:40:26;;;;;;;7.18;4.20;;;;;;;2.56;70.00;100933.91;4977664;28;20389;-60
2021/10/25 04:43:00;;;;;;;7.82;3.80;;;;;;;2.60;70.96;100934.13;4960279;28;20046;-59
2021/10/25 04:45:33;;;;;;;6.85;3.85;;;;;;;2.62;70.74;100932.56;4977785;28;20073;-59
2021/10/25 04:48:07;;;;;;;9.20;3.70;;;;;;;2.44;70.08;100903.91;4960128;28;20046;-59
2021/10/25 04:50:53;;;;;;;7.60;4.13;;;;;;;2.61;70.88;100929.97;4977231;28;20051;-59
2021/10/25 04:53:44;;;;;;;9.48;4.03;;;;;;;2.63;70.36;100933.44;4977093;28;20493;-59
2021/10/25 04:56:16;;;;;;;10.20;4.47;;;;;;;2.62;71.01;100935.06;4976499;28;20080;-59
2021/10/25 04:58:51;;;;;;;9.82;3.60;;;;;;;2.64;71.10;100928.44;4977150;28;20057;-59
2021/10/25 05:01:23;;;;;;;9.95;3.90;;;;;;;2.75;70.58;100930.66;4977018;28;20142;-59
2021/10/25 05:03:58;;;;;;;8.88;4.60;;;;;;;2.71;70.51;100930.50;4960452;28;20411;-59
2021/10/25 05:06:30;;;;;;;9.10;4.03;;;;;;;2.71;70.16;100930.50;4977062;28;20519;-59
2021/10/25 05:09:03;;;;;;;8.38;3.88;;;;;;;2.75;70.78;100930.66;4977287;28;20114;-59
2021/10/25 05:11:35;;;;;;;10.73;3.80;;;;;;;2.68;70.30;100935.41;4976964;28;20105;-59
2021/10/25 05:14:10;;;;;;;9.15;4.40;;;;;;;2.76;70.49;100930.72;4992314;28;20078;-59
2021/10/25 05:16:44;;;;;;;10.93;4.60;;;;;;;2.64;70.28;100923.41;4977145;28;20055;-59
2021/10/25 05:19:17;;;;;;;15.38;4.85;;;;;;;2.70;70.46;100933.81;4976757;28;20043;-59
2021/10/25 05:21:55;;;;;;;9.88;4.65;;;;;;;2.64;70.51;100925.94;4976693;28;20101;-59
2021/10/25 05:24:27;;;;;;;13.35;5.22;;;;;;;2.64;69.94;100933.50;4959557;28;20061;-59
2021/10/25 05:27:00;;;;;;;10.48;5.07;;;;;;;2.69;69.65;100932.06;4977012;28;20456;-59
2021/10/25 05:29:38;;;;;;;11.27;5.05;;;;;;;2.68;70.38;100925.31;4991508;28;20051;-59
2021/10/25 05:32:13;;;;;;;8.80;4.97;;;;;;;2.61;70.38;100933.38;4991872;28;20049;-59
2021/10/25 05:34:49;;;;;;;13.10;5.95;;;;;;;2.62;70.62;100935.06;4976821;28;20069;-59
2021/10/25 05:37:21;;;;;;;13.85;6.10;;;;;;;2.70;70.31;100938.88;4976446;28;20511;-59
2021/10/25 05:39:56;;;;;;;12.02;6.32;;;;;;;2.72;70.45;100947.34;4976261;28;20047;-59
2021/10/25 05:42:39;;;;;;;11.82;4.80;;;;;;;2.71;69.91;100945.63;4976237;28;20047;-59
2021/10/25 05:45:12;;;;;;;13.70;4.60;;;;;;;2.75;70.64;100945.78;4976302;28;20058;-59
2021/10/25 05:47:48;;;;;;;13.63;5.07;;;;;;;2.79;69.67;100957.75;4958718;28;20054;-59
2021/10/25 05:50:25;;;;;;;16.33;6.25;;;;;;;2.77;70.31;100954.28;4976122;28;20130;-59
2021/10/25 05:52:57;;;;;;;15.23;5.75;;;;;;;2.87;69.94;100961.53;4976458;28;20058;-59
2021/10/25 05:55:30;;;;;;;11.95;5.60;;;;;;;3.13;70.37;100963.69;4975228;28;20061;-60
2021/10/25 05:58:02;;;;;;;11.13;4.97;;;;;;;3.36;69.55;100960.63;4976076;28;20051;-59
2021/10/25 06:00:39;;;;;;;13.50;5.28;;;;;;;3.55;69.07;100959.88;4976300;28;20065;-59
2021/10/25 06:03:17;;;;;;;14.27;6.22;;;;;;;3.42;68.33;100935.69;4974671;28;20038;-59
2021/10/25 06:05:51;;;;;;;15.40;5.90;;;;;;;3.62;67.98;100960.22;4974750;28;20501;-59
2021/10/25 06:08:23;;;;;;;12.25;4.75;;;;;;;3.58;68.61;100952.41;4975889;28;20043;-59
2021/10/25 06:10:56;;;;;;;11.57;6.03;;;;;;;3.60;68.31;100966.84;4975907;28;20065;-59
2021/10/25 06:13:32;;;;;;;11.45;5.53;;;;;;;3.55;68.16;100963.22;4974799;28;20093;-59
2021/10/25 06:16:17;;;;;;;12.55;5.55;;;;;;;3.54;67.82;100961.50;4975734;28;20090;-59
2021/10/25 06:18:55;;;;;;;13.25;7.20;;;;;;;3.65;67.85;100965.41;4974584;28;20054;-59
2021/10/25 06:21:30;;;;;;;17.70;8.48;;;;;;;3.67;67.91;100963.81;4974750;28;20497;-59
2021/10/25 06:24:02;;;;;;;19.98;9.15;;;;;;;3.69;67.56;100967.28;4975626;28;20127;-59
2021/10/25 06:26:50;;;;;;;22.77;8.40;;;;;;;3.76;67.74;100968.44;4974340;28;20082;-59
2021/10/25 06:29:23;;;;;;;21.67;8.77;;;;;;;3.73;68.62;100938.88;4975516;28;20508;-59
2021/10/25 06:31:58;;;;;;;12.85;7.57;;;;;;;3.99;68.47;100960.25;4974574;28;20047;-59
2021/10/25 06:34:38;;;;;;;15.23;7.68;;;;;;;3.95;67.61;100940.72;4975343;28;20082;-59
2021/10/25 06:37:48;;;;;;;12.27;6.53;;;;;;;4.19;67.52;100956.13;4968459;28;20043;-59
2021/10/25 06:40:23;;;;;;;11.20;6.43;;;;;;;4.31;68.21;100951.63;4975643;28;20054;-59
2021/10/25 06:42:58;;;;;;;13.95;5.90;;;;;;;4.47;68.21;100965.00;4975719;28;20389;-59
2021/10/25 06:45:31;;;;;;;12.95;6.70;;;;;;;4.58;67.80;100957.91;4975557;28;20081;-59
2021/10/25 06:48:06;;;;;;;13.20;6.15;;;;;;;4.67;67.58;100958.28;4975153;28;20169;-59
2021/10/25 06:50:40;;;;;;;11.02;5.43;;;;;;;4.83;67.26;100960.66;4975177;28;20051;-59
2021/10/25 06:53:17;;;;;;;12.85;5.85;;;;;;;4.93;66.85;100962.78;4975360;28;20042;-59
2021/10/25 06:56:00;;;;;;;11.10;5.50;;;;;;;4.96;67.32;100941.81;4974224;28;20043;-59
2021/10/25 06:58:35;;;;;;;10.68;5.65;;;;;;;5.19;66.82;100956.28;4975022;28;20059;-61
2021/10/25 07:04:17;;;;;;;12.93;6.10;;;;;;;5.47;66.12;100964.16;5013071;23;20041;-61
2021/10/25 07:06:54;;;;;;;14.80;5.32;;;;;;;5.64;66.17;100962.34;4863780;29;20040;-62
2021/10/25 07:09:24;;;;;;;10.95;6.25;;;;;;;5.73;65.96;100962.69;4880228;29;20485;-61
2021/10/25 07:11:54;;;;;;;11.85;5.72;;;;;;;5.81;66.19;100973.97;4879791;29;20140;-61
2021/10/25 07:14:29;;;;;;;11.90;5.63;;;;;;;5.96;65.79;100977.13;4879764;29;20045;-61
2021/10/25 07:17:12;;;;;;;16.33;7.05;;;;;;;6.07;65.80;100965.72;4879445;29;20523;-61
2021/10/25 07:20:03;;;;;;;12.50;6.78;;;;;;;6.20;65.65;100967.06;4863383;29;20053;-61
2021/10/25 08:10:09;;;;;;;10.35;4.80;;;;;;;8.72;61.90;100932.09;4840557;29;20042;-61
2021/10/25 08:12:47;;;;;;;12.15;5.22;;;;;;;8.78;60.69;100922.09;4828497;29;20501;-62
2021/10/25 08:15:22;;;;;;;12.38;5.32;;;;;;;9.06;59.87;100929.63;4843874;29;20493;-62
2021/10/25 08:17:55;;;;;;;9.80;4.32;;;;;;;9.21;58.91;100929.97;4843887;29;20077;-61
2021/10/25 08:20:25;;;;;;;6.82;3.70;;;;;;;9.29;58.04;100928.50;4843848;29;20050;-61
2021/10/25 08:22:58;;;;;;;8.27;4.20;;;;;;;9.35;57.95;100938.84;4843750;29;20132;-62
2021/10/25 08:25:35;;;;;;;9.65;3.58;;;;;;;9.28;57.59;100931.88;4843790;29;20054;-62
2021/10/25 08:28:13;;;;;;;7.53;3.33;;;;;;;9.56;57.60;100929.97;4828351;29;20046;-62
2021/10/25 08:30:51;;;;;;;8.68;3.90;;;;;;;9.64;56.80;100925.91;4843747;29;20053;-62
2021/10/25 08:33:43;;;;;;;8.38;3.60;;;;;;;9.79;56.83;100916.06;4843507;29;20128;-62
2021/10/25 08:36:19;;;;;;;8.25;3.95;;;;;;;10.01;56.52;100923.34;4833985;29;20058;-62
2021/10/25 08:41:33;;;;;;;6.97;3.90;;;;;;;10.04;56.23;100915.75;4873393;29;20045;-62
2021/10/25 08:44:06;;;;;;;7.85;3.83;;;;;;;10.21;55.84;100913.59;4866065;29;20041;-62
2021/10/25 08:46:38;;;;;;;6.25;3.40;;;;;;;10.20;55.84;100920.38;4865799;29;20063;-62
2021/10/25 08:49:11;;;;;;;8.65;4.18;;;;;;;10.30;55.71;100901.88;4882607;29;20507;-62
2021/10/25 08:51:44;;;;;;;6.13;3.47;;;;;;;10.58;55.52;100924.56;4866158;29;20391;-62
2021/10/25 08:54:14;;;;;;;12.30;3.95;;;;;;;10.71;55.07;100918.00;4865557;29;20052;-62
2021/10/25 08:56:45;;;;;;;6.88;3.25;;;;;;;10.95;54.90;100910.78;4865468;29;20045;-62
2021/10/25 08:59:16;;;;;;;5.93;2.90;;;;;;;11.11;53.74;100914.47;4865644;29;20052;-62
2021/10/25 09:01:48;;;;;;;6.72;2.15;;;;;;;11.18;51.94;100900.94;4865507;29;20132;-62
2021/10/25 09:04:24;;;;;;;6.00;2.17;;;;;;;11.21;51.54;100903.53;4881526;29;20097;-61
2021/10/25 09:07:01;;;;;;;5.20;2.00;;;;;;;11.28;50.64;100895.13;4865307;29;20081;-62
2021/10/25 09:09:33;;;;;;;5.85;1.95;;;;;;;11.42;50.78;100903.91;4881995;29;20065;-62
2021/10/25 09:12:11;;;;;;;5.18;2.05;;;;;;;11.49;50.48;100900.59;4882143;29;20487;-61
2021/10/25 09:15:00;;;;;;;3.50;2.00;;;;;;;11.55;50.13;100893.00;4882153;29;20061;-62
2021/10/25 09:17:43;;;;;;;4.80;2.10;;;;;;;11.72;50.07;100901.81;4865470;29;20414;-62
2021/10/25 09:20:23;;;;;;;4.97;2.17;;;;;;;11.87;49.26;100899.47;4882010;29;20060;-62
2021/10/25 09:23:08;;;;;;;5.15;2.28;;;;;;;11.90;48.68;100898.66;4864387;29;20041;-62
2021/10/25 09:25:42;;;;;;;5.47;1.95;;;;;;;11.81;48.47;100889.16;4865012;29;20139;-62
2021/10/25 09:28:19;;;;;;;4.53;2.08;;;;;;;11.88;48.67;100885.84;4881499;29;20063;-61
2021/10/25 09:30:51;;;;;;;4.63;1.83;;;;;;;12.00;48.23;100885.13;4864757;29;20091;-62
2021/10/25 09:33:23;;;;;;;6.95;2.20;;;;;;;12.19;48.04;100878.56;4881298;29;20128;-62
2021/10/25 09:36:08;;;;;;;5.05;2.00;;;;;;;12.17;46.98;100877.66;4864696;29;20136;-62
2021/10/25 09:38:54;;;;;;;7.15;2.22;;;;;;;12.27;47.26;100875.25;4881031;29;20063;-62
2021/10/25 09:50:07;;;;;;;5.80;2.33;;;;;;;12.53;46.38;100868.69;4864546;29;20517;-61
2021/10/25 09:52:40;;;;;;;6.18;2.13;;;;;;;12.66;46.29;100856.88;4881373;29;20403;-62
2021/10/25 09:55:20;;;;;;;4.85;1.90;;;;;;;12.72;46.40;100862.03;4881080;29;20049;-62
2021/10/25 09:58:05;;;;;;;3.95;1.98;;;;;;;12.73;45.79;100856.09;4880712;29;20055;-62
2021/10/25 10:00:44;;;;;;;6.78;2.13;;;;;;;12.71;45.30;100852.66;4881319;29;20495;-62
2021/10/25 10:03:20;;;;;;;5.47;1.90;;;;;;;12.81;45.56;100854.47;4880908;29;20057;-61
2021/10/25 10:06:04;;;;;;;5.55;2.30;;;;;;;12.96;45.36;100856.28;4880275;29;20061;-62
2021/10/25 10:08:47;;;;;;;5.97;2.00;;;;;;;13.12;45.52;100850.50;4880905;29;20071;-62
2021/10/25 10:11:21;;;;;;;5.03;1.95;;;;;;;13.22;45.41;100845.41;4880698;29;20056;-62
2021/10/25 10:13:55;;;;;;;5.22;1.90;;;;;;;13.38;44.85;100849.84;4864228;29;20049;-61
2021/10/25 10:16:44;;;;;;;3.67;1.83;;;;;;;13.44;44.23;100844.72;4881006;29;20068;-62
2021/10/25 10:19:21;;;;;;;7.50;2.22;;;;;;;13.46;43.95;100821.63;4880733;29;20060;-62
2021/10/25 10:22:16;;;;;;;5.30;2.20;;;;;;;13.48;43.42;100834.50;4880201;29;20136;-62
2021/10/25 10:25:09;;;;;;;7.30;2.35;;;;;;;13.54;43.25;100825.13;4879399;29;20041;-62
2021/10/25 10:28:01;;;;;;;4.93;2.28;;;;;;;13.78;42.77;100822.69;4863880;29;20056;-63
2021/10/25 10:30:50;;;;;;;5.35;1.70;;;;;;;13.83;41.97;100833.81;4880714;29;20057;-62
2021/10/25 10:33:46;;;;;;;4.82;1.80;;;;;;;13.93;41.92;100819.31;4880373;29;20503;-62
2021/10/25 10:36:19;;;;;;;5.95;1.80;;;;;;;13.88;41.29;100821.88;4880432;29;20053;-62
2021/10/25 10:39:01;;;;;;;9.05;1.90;;;;;;;13.83;41.21;100812.44;4864066;29;20551;-62
2021/10/25 10:41:57;;;;;;;3.95;1.65;;;;;;;13.81;41.04;100809.88;4868622;29;20499;-61
2021/10/25 10:44:53;;;;;;;3.22;1.80;;;;;;;14.11;40.97;100803.97;4880002;29;20519;-62
2021/10/25 10:47:38;;;;;;;4.45;1.85;;;;;;;14.08;40.53;100804.81;4880241;29;20132;-62
2021/10/25 10:50:20;;;;;;;5.93;1.70;;;;;;;14.06;39.10;100800.53;4880126;29;20045;-62
2021/10/25 10:52:59;;;;;;;3.80;1.63;;;;;;;14.14;39.56;100796.28;4880278;29;20139;-62
2021/10/25 10:55:38;;;;;;;4.67;1.80;;;;;;;14.23;39.33;100792.91;4880081;29;20064;-62
2021/10/25 11:00:49;;;;;;;4.43;1.67;;;;;;;14.36;38.55;100782.69;4879929;29;20151;-61
2021/10/25 11:03:37;;;;;;;4.05;1.42;;;;;;;14.49;38.89;100761.28;4840232;29;20125;-62
2021/10/25 11:06:10;;;;;;;5.68;1.98;;;;;;;14.61;38.13;100776.69;4840554;29;20370;-62
2021/10/25 11:08:44;;;;;;;4.68;1.48;;;;;;;14.42;37.48;100767.25;4840895;29;20559;-62
2021/10/25 11:11:16;;;;;;;7.95;2.10;;;;;;;14.57;37.79;100764.72;4840220;29;20056;-62
2021/10/25 11:13:50;;;;;;;3.33;1.67;;;;;;;14.53;37.80;100742.47;4840915;29;20110;-62
2021/10/25 11:16:28;;;;;;;3.03;1.38;;;;;;;14.68;36.63;100763.00;4840736;29;20075;-62
2021/10/25 11:19:03;;;;;;;3.88;1.60;;;;;;;14.65;36.77;100755.31;4840969;29;20053;-62
2021/10/25 11:21:38;;;;;;;5.07;1.73;;;;;;;14.69;37.18;100754.44;4840785;29;20058;-62
2021/10/25 11:24:11;;;;;;;4.15;1.67;;;;;;;14.72;36.64;100764.72;4840519;29;20101;-61
2021/10/25 11:26:42;;;;;;;3.85;1.50;;;;;;;14.45;36.89;100739.00;4825588;29;20080;-61
2021/10/25 11:29:13;;;;;;;4.28;1.70;;;;;;;14.62;36.78;100752.72;4874480;29;20048;-61
2021/10/25 11:31:46;;;;;;;4.03;1.70;;;;;;;14.76;36.61;100752.72;4879612;29;20136;-62
2021/10/25 11:34:19;;;;;;;3.60;1.80;;;;;;;14.82;36.55;100751.84;4879825;29;20376;-62
2021/10/25 11:36:58;;;;;;;3.40;1.50;;;;;;;14.85;36.89;100746.72;4879531;29;20132;-62
2021/10/25 11:39:32;;;;;;;4.35;1.63;;;;;;;14.88;36.77;100744.13;4879565;29;20049;-62
2021/10/25 11:42:01;;;;;;;3.10;1.65;;;;;;;14.92;36.95;100745.84;4879552;29;20064;-62
2021/10/25 11:44:34;;;;;;;4.15;2.03;;;;;;;14.98;36.62;100732.97;4879436;29;20059;-62
2021/10/25 11:47:04;;;;;;;4.18;1.50;;;;;;;15.07;36.93;100725.28;4883007;29;20408;-62
2021/10/25 11:49:38;;;;;;;6.50;2.70;;;;;;;15.16;36.75;100730.38;4883834;29;20140;-62
2021/10/25 11:52:09;;;;;;;3.83;1.80;;;;;;;15.03;36.69;100719.25;4883154;29;20052;-62
2021/10/25 11:54:47;;;;;;;6.05;1.60;;;;;;;14.97;37.03;100708.16;4883132;29;20104;-62
2021/10/25 11:57:18;;;;;;;4.95;1.83;;;;;;;15.06;36.99;100702.97;4883199;29;20053;-61
2021/10/25 11:59:56;;;;;;;4.15;1.95;;;;;;;15.20;36.94;100706.38;4883236;29;20072;-62
2021/10/25 12:02:28;;;;;;;2.60;1.52;;;;;;;15.18;37.09;100702.94;4883060;29;20056;-62
2021/10/25 12:04:58;;;;;;;4.55;1.83;;;;;;;15.08;37.27;100696.09;4882932;29;20083;-62
2021/10/25 12:07:29;;;;;;;4.68;2.15;;;;;;;15.09;37.02;100697.84;4883133;29;20117;-62
2021/10/25 12:10:02;;;;;;;4.78;2.45;;;;;;;15.10;37.61;100689.25;4883266;29;20144;-62
2021/10/25 12:12:34;;;;;;;4.15;1.60;;;;;;;15.26;37.32;100685.78;4882875;29;20053;-62
2021/10/25 12:15:05;;;;;;;4.53;2.10;;;;;;;15.21;37.44;100679.78;4882813;29;20045;-61
2021/10/25 12:17:37;;;;;;;4.32;1.65;;;;;;;15.16;37.75;100673.81;4882880;29;20403;-62
2021/10/25 12:20:11;;;;;;;4.13;2.17;;;;;;;15.20;37.58;100672.94;4882650;29;20053;-62
2021/10/25 12:22:43;;;;;;;5.75;2.30;;;;;;;15.18;37.95;100670.38;4882994;29;20081;-62
2021/10/25 12:25:12;;;;;;;5.63;2.70;;;;;;;15.06;38.46;100659.25;4882676;29;20132;-62
2021/10/25 12:27:46;;;;;;;4.03;2.20;;;;;;;15.14;37.80;100665.25;4882826;29;20128;-62
2021/10/25 12:30:17;;;;;;;4.70;2.22;;;;;;;15.27;38.40;100659.19;4882490;29;20488;-62
2021/10/25 12:32:56;;;;;;;6.03;2.45;;;;;;;15.48;38.32;100660.84;4882534;29;20057;-62
2021/10/25 12:35:37;;;;;;;3.45;1.95;;;;;;;15.36;38.14;100656.56;4882416;29;20041;-62
2021/10/25 12:38:11;;;;;;;5.15;2.33;;;;;;;15.17;38.68;100653.22;4882420;29;20082;-62
2021/10/25 12:40:43;;;;;;;6.30;2.28;;;;;;;15.05;38.88;100654.97;4882203;29;20052;-62
2021/10/25 12:43:13;;;;;;;6.72;2.45;;;;;;;15.18;38.45;100656.66;4882234;29;20080;-61
2021/10/25 12:45:44;;;;;;;5.70;2.30;;;;;;;15.28;38.82;100654.03;4882182;29;20049;-62
2021/10/25 12:48:16;;;;;;;4.85;2.00;;;;;;;15.19;38.51;100637.78;4882347;29;20095;-62
2021/10/25 12:50:50;;;;;;;5.35;2.05;;;;;;;15.10;38.98;100635.25;4882397;29;20505;-62
2021/10/25 12:53:21;;;;;;;5.85;2.58;;;;;;;15.06;39.05;100636.13;4882556;29;20049;-62
2021/10/25 12:55:55;;;;;;;5.38;2.38;;;;;;;14.84;39.23;100603.63;4882194;29;20045;-62
2021/10/25 12:58:26;;;;;;;4.88;2.28;;;;;;;15.01;39.60;100630.13;4881087;29;20499;-61
2021/10/25 13:00:56;;;;;;;5.15;2.35;;;;;;;15.00;39.12;100641.28;4882384;29;20060;-61
2021/10/25 13:03:30;;;;;;;7.13;2.38;;;;;;;15.00;39.14;100625.84;4882256;29;20048;-62
2021/10/25 13:06:08;;;;;;;3.97;2.10;;;;;;;14.88;38.82;100620.75;4881627;29;20061;-61
2021/10/25 13:08:45;;;;;;;5.75;2.20;;;;;;;14.83;39.16;100623.31;4881926;29;20053;-61
2021/10/25 13:11:17;;;;;;;5.43;2.42;;;;;;;14.84;39.21;100619.06;4881828;29;20064;-62
2021/10/25 13:13:47;;;;;;;5.18;2.60;;;;;;;14.69;39.19;100612.22;4881773;29;20491;-61
2021/10/25 13:16:22;;;;;;;5.20;2.17;;;;;;;14.78;39.43;100604.50;4881854;29;20108;-61
2021/10/25 13:18:52;;;;;;;6.63;3.08;;;;;;;14.88;39.46;100605.31;4881726;29;20056;-62
2021/10/25 13:21:21;;;;;;;4.38;2.38;;;;;;;14.99;38.97;100596.72;4881723;29;20113;-62
2021/10/25 13:23:55;;;;;;;5.30;2.25;;;;;;;14.88;39.04;100589.91;4882000;29;20057;-61
2021/10/25 13:26:26;;;;;;;6.15;3.00;;;;;;;14.86;39.05;100576.19;4881577;29;20084;-62
2021/10/25 13:28:55;;;;;;;5.88;2.58;;;;;;;14.99;38.71;100593.31;4881550;29;20053;-62
2021/10/25 13:31:28;;;;;;;6.32;2.85;;;;;;;15.02;38.57;100588.16;4881452;29;20053;-61
2021/10/25 13:33:59;;;;;;;5.55;2.70;;;;;;;15.11;38.56;100577.81;4881555;29;20053;-61
2021/10/25 13:36:28;;;;;;;5.43;2.70;;;;;;;15.04;38.86;100577.00;4881674;29;20559;-62
2021/10/25 13:39:10;;;;;;;5.53;2.65;;;;;;;14.86;39.28;100586.47;4881283;29;20052;-62